sensor_id;sensor_type;location;lat;lon;timestamp;temperature;humidity
2112;DHT22;1062;52.538;13.400;2022-12-31T00:01:29;9.10;99.90
2112;DHT22;1062;52.538;13.400;2022-12-31T00:03:55;9.10;99.90
2112;DHT22;1062;52.538;13.400;2022-12-31T00:06:27;9.10;99.90
2112;DHT22;1062;52.538;13.400;2022-12-31T00:08:55;9.10;99.90
2112;DHT22;1062;52.538;13.400;2022-12-31T00:11:22;9.10;99.90
2112;DHT22;1062;52.538;13.400;2022-12-31T00:13:49;9.10;99.90
2112;DHT22;1062;52.538;13.400;2022-12-31T00:16:17;9.10;99.90
2112;DHT22;1062;52.538;13.400;2022-12-31T00:18:45;9.20;99.90
2112;DHT22;1062;52.538;13.400;2022-12-31T00:21:12;9.20;99.90
2112;DHT22;1062;52.538;13.400;2022-12-31T00:23:38;9.20;99.90
2112;DHT22;1062;52.538;13.400;2022-12-31T00:26:06;9.20;99.90
2112;DHT22;1062;52.538;13.400;2022-12-31T00:28:33;9.30;99.90
2112;DHT22;1062;52.538;13.400;2022-12-31T00:31:08;9.20;99.90
2112;DHT22;1062;52.538;13.400;2022-12-31T00:33:35;9.30;99.90
2112;DHT22;1062;52.538;13.400;2022-12-31T00:36:12;9.30;99.90
2112;DHT22;1062;52.538;13.400;2022-12-31T00:38:39;9.30;99.90
2112;DHT22;1062;52.538;13.400;2022-12-31T00:41:05;9.30;99.90
2112;DHT22;1062;52.538;13.400;2022-12-31T00:43:32;9.30;99.90
2112;DHT22;1062;52.538;13.400;2022-12-31T00:45:58;9.20;99.90
2112;DHT22;1062;52.538;13.400;2022-12-31T00:48:23;9.20;99.90
2112;DHT22;1062;52.538;13.400;2022-12-31T00:50:49;9.10;99.90
2112;DHT22;1062;52.538;13.400;2022-12-31T00:53:15;9.10;99.90
2112;DHT22;1062;52.538;13.400;2022-12-31T00:55:41;9.10;99.90
2112;DHT22;1062;52.538;13.400;2022-12-31T00:58:06;9.00;99.90
2112;DHT22;1062;52.538;13.400;2022-12-31T01:00:32;9.10;99.90
2112;DHT22;1062;52.538;13.400;2022-12-31T01:02:58;9.00;99.90
2112;DHT22;1062;52.538;13.400;2022-12-31T01:05:23;8.90;99.90
2112;DHT22;1062;52.538;13.400;2022-12-31T01:07:49;8.90;99.90
2112;DHT22;1062;52.538;13.400;2022-12-31T01:10:14;8.90;99.90
2112;DHT22;1062;52.538;13.400;2022-12-31T01:13:03;8.90;99.90
2112;DHT22;1062;52.538;13.400;2022-12-31T01:15:32;8.90;99.90
2112;DHT22;1062;52.538;13.400;2022-12-31T01:17:58;9.00;99.90
2112;DHT22;1062;52.538;13.400;2022-12-31T01:20:24;9.00;99.90
2112;DHT22;1062;52.538;13.400;2022-12-31T01:22:49;9.10;99.90
2112;DHT22;1062;52.538;13.400;2022-12-31T01:25:15;9.20;99.90
2112;DHT22;1062;52.538;13.400;2022-12-31T01:27:40;9.20;99.90
2112;DHT22;1062;52.538;13.400;2022-12-31T01:30:06;9.30;99.90
2112;DHT22;1062;52.538;13.400;2022-12-31T01:32:32;9.30;99.90
2112;DHT22;1062;52.538;13.400;2022-12-31T01:34:58;9.30;99.90
2112;DHT22;1062;52.538;13.400;2022-12-31T01:37:23;9.40;99.90
2112;DHT22;1062;52.538;13.400;2022-12-31T01:39:49;9.40;99.90
2112;DHT22;1062;52.538;13.400;2022-12-31T01:42:14;9.50;99.90
2112;DHT22;1062;52.538;13.400;2022-12-31T01:47:13;9.50;99.90
2112;DHT22;1062;52.538;13.400;2022-12-31T01:49:52;9.60;99.90
2112;DHT22;1062;52.538;13.400;2022-12-31T01:52:23;9.60;99.90
2112;DHT22;1062;52.538;13.400;2022-12-31T01:55:05;9.70;99.90
2112;DHT22;1062;52.538;13.400;2022-12-31T01:57:33;9.70;99.90
2112;DHT22;1062;52.538;13.400;2022-12-31T01:59:59;9.80;99.90
2112;DHT22;1062;52.538;13.400;2022-12-31T02:02:26;9.80;99.90
2112;DHT22;1062;52.538;13.400;2022-12-31T02:04:54;9.90;99.90
2112;DHT22;1062;52.538;13.400;2022-12-31T02:07:22;10.10;99.90
2112;DHT22;1062;52.538;13.400;2022-12-31T02:09:47;10.20;99.90
2112;DHT22;1062;52.538;13.400;2022-12-31T02:12:13;10.10;99.90
2112;DHT22;1062;52.538;13.400;2022-12-31T02:14:42;10.20;99.90
2112;DHT22;1062;52.538;13.400;2022-12-31T02:17:31;10.30;99.90
2112;DHT22;1062;52.538;13.400;2022-12-31T02:25:59;10.50;99.90
2112;DHT22;1062;52.538;13.400;2022-12-31T02:31:19;10.50;99.90
2112;DHT22;1062;52.538;13.400;2022-12-31T02:36:27;10.60;99.90
2112;DHT22;1062;52.538;13.400;2022-12-31T02:38:55;10.50;99.90
2112;DHT22;1062;52.538;13.400;2022-12-31T02:41:21;10.50;99.90
2112;DHT22;1062;52.538;13.400;2022-12-31T02:52:34;10.50;99.90
2112;DHT22;1062;52.538;13.400;2022-12-31T03:00:29;10.60;99.90
2112;DHT22;1062;52.538;13.400;2022-12-31T03:03:31;10.60;99.90
2112;DHT22;1062;52.538;13.400;2022-12-31T03:05:57;10.60;99.90
2112;DHT22;1062;52.538;13.400;2022-12-31T03:08:26;10.60;99.90
2112;DHT22;1062;52.538;13.400;2022-12-31T03:10:51;10.50;99.90
2112;DHT22;1062;52.538;13.400;2022-12-31T03:13:17;10.60;99.90
2112;DHT22;1062;52.538;13.400;2022-12-31T03:15:43;10.50;99.90
2112;DHT22;1062;52.538;13.400;2022-12-31T03:18:11;10.60;99.90
2112;DHT22;1062;52.538;13.400;2022-12-31T03:20:45;10.60;99.90
2112;DHT22;1062;52.538;13.400;2022-12-31T03:23:34;10.60;99.90
2112;DHT22;1062;52.538;13.400;2022-12-31T03:26:00;10.70;99.90
2112;DHT22;1062;52.538;13.400;2022-12-31T03:28:28;10.70;99.90
2112;DHT22;1062;52.538;13.400;2022-12-31T03:30:57;10.70;99.90
2112;DHT22;1062;52.538;13.400;2022-12-31T03:33:24;10.70;99.90
2112;DHT22;1062;52.538;13.400;2022-12-31T03:35:51;10.60;99.90
2112;DHT22;1062;52.538;13.400;2022-12-31T03:38:18;10.60;99.90
2112;DHT22;1062;52.538;13.400;2022-12-31T03:40:47;10.50;99.90
2112;DHT22;1062;52.538;13.400;2022-12-31T03:43:13;10.50;99.90
2112;DHT22;1062;52.538;13.400;2022-12-31T03:45:39;10.50;99.90
2112;DHT22;1062;52.538;13.400;2022-12-31T03:48:06;10.40;99.90
2112;DHT22;1062;52.538;13.400;2022-12-31T03:50:33;10.50;99.90
2112;DHT22;1062;52.538;13.400;2022-12-31T03:52:58;10.50;99.90
2112;DHT22;1062;52.538;13.400;2022-12-31T03:55:24;10.60;99.90
2112;DHT22;1062;52.538;13.400;2022-12-31T03:57:50;10.60;99.90
2112;DHT22;1062;52.538;13.400;2022-12-31T04:00:18;10.60;99.90
2112;DHT22;1062;52.538;13.400;2022-12-31T04:02:45;10.50;99.90
2112;DHT22;1062;52.538;13.400;2022-12-31T04:05:11;10.60;99.90
2112;DHT22;1062;52.538;13.400;2022-12-31T04:07:37;10.60;99.90
2112;DHT22;1062;52.538;13.400;2022-12-31T04:10:04;10.60;99.90
2112;DHT22;1062;52.538;13.400;2022-12-31T04:12:30;10.60;99.90
2112;DHT22;1062;52.538;13.400;2022-12-31T04:14:56;10.60;99.90
2112;DHT22;1062;52.538;13.400;2022-12-31T04:17:22;10.70;99.90
2112;DHT22;1062;52.538;13.400;2022-12-31T04:19:47;10.80;99.90
2112;DHT22;1062;52.538;13.400;2022-12-31T04:22:13;10.90;99.90
2112;DHT22;1062;52.538;13.400;2022-12-31T04:24:39;10.80;99.90
2112;DHT22;1062;52.538;13.400;2022-12-31T04:27:05;10.80;99.90
2112;DHT22;1062;52.538;13.400;2022-12-31T04:29:31;10.90;99.90
2112;DHT22;1062;52.538;13.400;2022-12-31T04:31:56;10.90;99.90
2112;DHT22;1062;52.538;13.400;2022-12-31T04:34:22;11.00;99.90
2112;DHT22;1062;52.538;13.400;2022-12-31T04:36:48;11.00;99.90
2112;DHT22;1062;52.538;13.400;2022-12-31T04:39:13;10.90;99.90
2112;DHT22;1062;52.538;13.400;2022-12-31T04:41:39;11.00;99.90
2112;DHT22;1062;52.538;13.400;2022-12-31T04:44:04;11.00;99.90
2112;DHT22;1062;52.538;13.400;2022-12-31T04:46:32;11.00;99.90
2112;DHT22;1062;52.538;13.400;2022-12-31T04:48:58;11.10;99.90
2112;DHT22;1062;52.538;13.400;2022-12-31T04:51:25;11.10;99.90
2112;DHT22;1062;52.538;13.400;2022-12-31T04:53:51;11.00;99.90
2112;DHT22;1062;52.538;13.400;2022-12-31T04:56:17;11.00;99.90
2112;DHT22;1062;52.538;13.400;2022-12-31T04:58:43;11.10;99.90
2112;DHT22;1062;52.538;13.400;2022-12-31T05:01:09;11.10;99.90
2112;DHT22;1062;52.538;13.400;2022-12-31T05:03:35;11.20;99.90
2112;DHT22;1062;52.538;13.400;2022-12-31T05:06:03;11.30;99.90
2112;DHT22;1062;52.538;13.400;2022-12-31T05:08:29;11.20;99.90
2112;DHT22;1062;52.538;13.400;2022-12-31T05:10:55;11.30;99.90
2112;DHT22;1062;52.538;13.400;2022-12-31T05:13:21;11.30;99.90
2112;DHT22;1062;52.538;13.400;2022-12-31T05:15:47;11.30;99.90
2112;DHT22;1062;52.538;13.400;2022-12-31T05:18:13;11.40;99.90
2112;DHT22;1062;52.538;13.400;2022-12-31T05:20:39;11.40;99.90
2112;DHT22;1062;52.538;13.400;2022-12-31T05:23:04;11.40;99.90
2112;DHT22;1062;52.538;13.400;2022-12-31T05:25:31;11.40;99.90
2112;DHT22;1062;52.538;13.400;2022-12-31T05:27:56;11.40;99.90
2112;DHT22;1062;52.538;13.400;2022-12-31T05:30:22;11.40;99.90
2112;DHT22;1062;52.538;13.400;2022-12-31T05:32:48;11.50;99.90
2112;DHT22;1062;52.538;13.400;2022-12-31T05:35:15;11.50;99.90
2112;DHT22;1062;52.538;13.400;2022-12-31T05:37:40;11.50;99.90
2112;DHT22;1062;52.538;13.400;2022-12-31T05:40:06;11.40;99.90
2112;DHT22;1062;52.538;13.400;2022-12-31T05:42:32;11.40;99.90
2112;DHT22;1062;52.538;13.400;2022-12-31T05:44:58;11.40;99.90
2112;DHT22;1062;52.538;13.400;2022-12-31T05:47:24;11.40;99.90
2112;DHT22;1062;52.538;13.400;2022-12-31T05:49:50;11.30;99.90
2112;DHT22;1062;52.538;13.400;2022-12-31T05:52:16;11.30;99.90
2112;DHT22;1062;52.538;13.400;2022-12-31T05:54:42;11.30;99.90
2112;DHT22;1062;52.538;13.400;2022-12-31T05:57:07;11.30;99.90
2112;DHT22;1062;52.538;13.400;2022-12-31T05:59:33;11.30;99.90
2112;DHT22;1062;52.538;13.400;2022-12-31T06:01:59;11.30;99.90
2112;DHT22;1062;52.538;13.400;2022-12-31T06:04:25;11.30;99.90
2112;DHT22;1062;52.538;13.400;2022-12-31T06:06:50;11.40;99.90
2112;DHT22;1062;52.538;13.400;2022-12-31T06:09:17;11.40;99.90
2112;DHT22;1062;52.538;13.400;2022-12-31T06:11:43;11.40;99.90
2112;DHT22;1062;52.538;13.400;2022-12-31T06:14:09;11.50;99.90
2112;DHT22;1062;52.538;13.400;2022-12-31T06:16:34;11.50;99.90
2112;DHT22;1062;52.538;13.400;2022-12-31T06:19:00;11.60;99.90
2112;DHT22;1062;52.538;13.400;2022-12-31T06:21:27;11.60;99.90
2112;DHT22;1062;52.538;13.400;2022-12-31T06:23:53;11.70;99.90
2112;DHT22;1062;52.538;13.400;2022-12-31T06:26:18;11.60;99.90
2112;DHT22;1062;52.538;13.400;2022-12-31T06:28:44;11.70;99.90
2112;DHT22;1062;52.538;13.400;2022-12-31T06:31:11;11.70;99.90
2112;DHT22;1062;52.538;13.400;2022-12-31T06:33:37;11.70;99.90
2112;DHT22;1062;52.538;13.400;2022-12-31T06:36:05;11.80;99.90
2112;DHT22;1062;52.538;13.400;2022-12-31T06:38:33;11.80;99.90
2112;DHT22;1062;52.538;13.400;2022-12-31T06:41:06;11.80;99.90
2112;DHT22;1062;52.538;13.400;2022-12-31T06:43:32;11.80;99.90
2112;DHT22;1062;52.538;13.400;2022-12-31T06:46:05;12.00;99.90
2112;DHT22;1062;52.538;13.400;2022-12-31T06:48:31;11.90;99.90
2112;DHT22;1062;52.538;13.400;2022-12-31T06:51:03;12.10;99.90
2112;DHT22;1062;52.538;13.400;2022-12-31T06:53:30;12.10;99.90
2112;DHT22;1062;52.538;13.400;2022-12-31T06:55:56;12.00;99.90
2112;DHT22;1062;52.538;13.400;2022-12-31T06:58:22;12.10;99.90
2112;DHT22;1062;52.538;13.400;2022-12-31T07:06:36;12.20;99.90
2112;DHT22;1062;52.538;13.400;2022-12-31T07:09:12;12.20;99.90
2112;DHT22;1062;52.538;13.400;2022-12-31T07:11:57;12.20;99.90
2112;DHT22;1062;52.538;13.400;2022-12-31T07:14:34;12.30;99.90
2112;DHT22;1062;52.538;13.400;2022-12-31T07:19:43;12.50;99.90
2112;DHT22;1062;52.538;13.400;2022-12-31T07:22:13;12.50;99.90
2112;DHT22;1062;52.538;13.400;2022-12-31T07:24:43;12.60;99.90
2112;DHT22;1062;52.538;13.400;2022-12-31T07:38:07;12.90;99.90
2112;DHT22;1062;52.538;13.400;2022-12-31T07:48:38;13.20;99.90
2112;DHT22;1062;52.538;13.400;2022-12-31T07:51:04;13.30;99.90
2112;DHT22;1062;52.538;13.400;2022-12-31T07:53:30;13.30;99.90
2112;DHT22;1062;52.538;13.400;2022-12-31T07:56:03;13.40;99.90
2112;DHT22;1062;52.538;13.400;2022-12-31T08:01:33;13.60;99.90
2112;DHT22;1062;52.538;13.400;2022-12-31T08:04:14;13.70;99.90
2112;DHT22;1062;52.538;13.400;2022-12-31T08:07:42;13.70;99.90
2112;DHT22;1062;52.538;13.400;2022-12-31T08:10:23;13.70;99.90
2112;DHT22;1062;52.538;13.400;2022-12-31T08:12:33;13.80;99.90
2112;DHT22;1062;52.538;13.400;2022-12-31T08:14:59;13.80;99.90
2112;DHT22;1062;52.538;13.400;2022-12-31T08:17:24;13.90;99.90
2112;DHT22;1062;52.538;13.400;2022-12-31T08:19:50;13.90;99.90
2112;DHT22;1062;52.538;13.400;2022-12-31T08:25:13;14.00;99.90
2112;DHT22;1062;52.538;13.400;2022-12-31T08:30:20;14.00;99.90
2112;DHT22;1062;52.538;13.400;2022-12-31T08:33:17;14.10;99.90
2112;DHT22;1062;52.538;13.400;2022-12-31T08:41:37;14.30;99.90
2112;DHT22;1062;52.538;13.400;2022-12-31T08:46:54;14.30;99.90
2112;DHT22;1062;52.538;13.400;2022-12-31T08:49:24;14.30;99.90
2112;DHT22;1062;52.538;13.400;2022-12-31T08:51:51;14.40;99.90
2112;DHT22;1062;52.538;13.400;2022-12-31T08:54:16;14.50;99.90
2112;DHT22;1062;52.538;13.400;2022-12-31T08:56:58;14.50;99.90
2112;DHT22;1062;52.538;13.400;2022-12-31T08:59:49;14.60;99.90
2112;DHT22;1062;52.538;13.400;2022-12-31T09:05:31;14.70;99.90
2112;DHT22;1062;52.538;13.400;2022-12-31T09:13:45;14.80;99.90
2112;DHT22;1062;52.538;13.400;2022-12-31T09:18:46;15.00;99.90
2112;DHT22;1062;52.538;13.400;2022-12-31T09:21:13;15.00;99.90
2112;DHT22;1062;52.538;13.400;2022-12-31T09:23:39;15.10;99.90
2112;DHT22;1062;52.538;13.400;2022-12-31T09:26:21;15.10;99.90
2112;DHT22;1062;52.538;13.400;2022-12-31T09:34:06;15.40;99.90
2112;DHT22;1062;52.538;13.400;2022-12-31T09:36:42;15.50;99.90
2112;DHT22;1062;52.538;13.400;2022-12-31T09:39:20;15.60;99.90
2112;DHT22;1062;52.538;13.400;2022-12-31T09:45:26;15.70;99.90
2112;DHT22;1062;52.538;13.400;2022-12-31T09:48:24;15.60;99.90
2112;DHT22;1062;52.538;13.400;2022-12-31T09:51:26;15.60;99.90
2112;DHT22;1062;52.538;13.400;2022-12-31T09:54:15;15.70;99.90
2112;DHT22;1062;52.538;13.400;2022-12-31T09:57:11;15.70;99.90
2112;DHT22;1062;52.538;13.400;2022-12-31T09:59:50;15.80;99.90
2112;DHT22;1062;52.538;13.400;2022-12-31T10:11:07;16.00;99.90
2112;DHT22;1062;52.538;13.400;2022-12-31T10:14:21;16.00;99.90
2112;DHT22;1062;52.538;13.400;2022-12-31T10:21:59;16.00;99.90
2112;DHT22;1062;52.538;13.400;2022-12-31T10:30:01;16.10;99.90
2112;DHT22;1062;52.538;13.400;2022-12-31T10:32:45;16.00;99.90
2112;DHT22;1062;52.538;13.400;2022-12-31T10:35:49;16.00;99.90
2112;DHT22;1062;52.538;13.400;2022-12-31T10:38:28;16.10;99.90
2112;DHT22;1062;52.538;13.400;2022-12-31T10:41:22;16.20;99.90
2112;DHT22;1062;52.538;13.400;2022-12-31T10:49:45;16.10;99.90
2112;DHT22;1062;52.538;13.400;2022-12-31T11:12:01;15.70;99.90
2112;DHT22;1062;52.538;13.400;2022-12-31T11:23:20;15.60;99.90
2112;DHT22;1062;52.538;13.400;2022-12-31T11:26:16;15.60;99.90
2112;DHT22;1062;52.538;13.400;2022-12-31T11:31:49;15.60;99.90
2112;DHT22;1062;52.538;13.400;2022-12-31T11:49:29;15.80;99.90
2112;DHT22;1062;52.538;13.400;2022-12-31T11:57:47;16.10;99.90
2112;DHT22;1062;52.538;13.400;2022-12-31T12:00:26;16.20;99.90
2112;DHT22;1062;52.538;13.400;2022-12-31T12:02:58;16.20;99.90
2112;DHT22;1062;52.538;13.400;2022-12-31T12:05:26;16.30;99.90
2112;DHT22;1062;52.538;13.400;2022-12-31T12:07:52;16.50;99.90
2112;DHT22;1062;52.538;13.400;2022-12-31T12:10:58;16.60;99.90
2112;DHT22;1062;52.538;13.400;2022-12-31T12:13:22;16.70;99.90
2112;DHT22;1062;52.538;13.400;2022-12-31T12:15:51;16.80;99.90
2112;DHT22;1062;52.538;13.400;2022-12-31T12:20:49;16.90;99.90
2112;DHT22;1062;52.538;13.400;2022-12-31T12:23:20;17.00;99.90
2112;DHT22;1062;52.538;13.400;2022-12-31T12:25:48;17.00;99.90
2112;DHT22;1062;52.538;13.400;2022-12-31T12:30:51;17.20;99.90
2112;DHT22;1062;52.538;13.400;2022-12-31T12:33:18;17.20;99.90
2112;DHT22;1062;52.538;13.400;2022-12-31T12:35:45;17.20;99.90
2112;DHT22;1062;52.538;13.400;2022-12-31T12:38:22;17.20;99.90
2112;DHT22;1062;52.538;13.400;2022-12-31T12:40:58;17.20;99.90
2112;DHT22;1062;52.538;13.400;2022-12-31T12:43:30;17.20;99.90
2112;DHT22;1062;52.538;13.400;2022-12-31T12:46:16;17.20;99.90
2112;DHT22;1062;52.538;13.400;2022-12-31T12:48:45;17.20;99.90
2112;DHT22;1062;52.538;13.400;2022-12-31T12:51:26;17.20;99.90
2112;DHT22;1062;52.538;13.400;2022-12-31T12:56:47;17.30;99.90
2112;DHT22;1062;52.538;13.400;2022-12-31T13:18:38;17.30;99.90
2112;DHT22;1062;52.538;13.400;2022-12-31T13:21:28;17.30;99.90
2112;DHT22;1062;52.538;13.400;2022-12-31T13:26:57;17.30;99.90
2112;DHT22;1062;52.538;13.400;2022-12-31T13:29:28;17.20;99.90
2112;DHT22;1062;52.538;13.400;2022-12-31T13:31:56;17.30;99.90
2112;DHT22;1062;52.538;13.400;2022-12-31T13:34:28;17.30;99.90
2112;DHT22;1062;52.538;13.400;2022-12-31T13:36:57;17.20;99.90
2112;DHT22;1062;52.538;13.400;2022-12-31T13:39:27;17.20;99.90
2112;DHT22;1062;52.538;13.400;2022-12-31T13:42:04;17.20;99.90
2112;DHT22;1062;52.538;13.400;2022-12-31T13:44:41;17.20;99.90
2112;DHT22;1062;52.538;13.400;2022-12-31T13:47:16;17.20;99.90
2112;DHT22;1062;52.538;13.400;2022-12-31T13:49:53;17.30;99.90
2112;DHT22;1062;52.538;13.400;2022-12-31T13:52:40;17.30;99.90
2112;DHT22;1062;52.538;13.400;2022-12-31T13:55:24;17.30;99.90
2112;DHT22;1062;52.538;13.400;2022-12-31T14:01:05;17.30;99.90
2112;DHT22;1062;52.538;13.400;2022-12-31T14:03:48;17.40;99.90
2112;DHT22;1062;52.538;13.400;2022-12-31T14:06:31;17.40;99.90
2112;DHT22;1062;52.538;13.400;2022-12-31T14:08:58;17.40;99.90
2112;DHT22;1062;52.538;13.400;2022-12-31T14:11:49;17.40;99.90
2112;DHT22;1062;52.538;13.400;2022-12-31T14:14:32;17.40;99.90
2112;DHT22;1062;52.538;13.400;2022-12-31T14:19:43;17.40;99.90
2112;DHT22;1062;52.538;13.400;2022-12-31T14:25:22;17.30;99.90
2112;DHT22;1062;52.538;13.400;2022-12-31T14:27:52;17.20;99.90
2112;DHT22;1062;52.538;13.400;2022-12-31T14:30:20;17.20;99.90
2112;DHT22;1062;52.538;13.400;2022-12-31T14:38:25;17.10;99.90
2112;DHT22;1062;52.538;13.400;2022-12-31T14:43:51;17.00;99.90
2112;DHT22;1062;52.538;13.400;2022-12-31T14:52:31;16.90;99.90
2112;DHT22;1062;52.538;13.400;2022-12-31T14:57:41;16.90;99.90
2112;DHT22;1062;52.538;13.400;2022-12-31T15:00:27;16.90;99.90
2112;DHT22;1062;52.538;13.400;2022-12-31T15:03:03;16.80;99.90
2112;DHT22;1062;52.538;13.400;2022-12-31T15:05:31;16.70;99.90
2112;DHT22;1062;52.538;13.400;2022-12-31T15:14:06;16.80;99.90
2112;DHT22;1062;52.538;13.400;2022-12-31T15:24:48;16.60;99.90
2112;DHT22;1062;52.538;13.400;2022-12-31T15:27:35;16.60;99.90
2112;DHT22;1062;52.538;13.400;2022-12-31T15:30:03;16.50;99.90
2112;DHT22;1062;52.538;13.400;2022-12-31T15:32:49;16.50;99.90
2112;DHT22;1062;52.538;13.400;2022-12-31T15:38:02;16.50;99.90
2112;DHT22;1062;52.538;13.400;2022-12-31T15:40:28;16.50;99.90
2112;DHT22;1062;52.538;13.400;2022-12-31T15:45:37;16.60;99.90
2112;DHT22;1062;52.538;13.400;2022-12-31T15:48:39;16.50;99.90
2112;DHT22;1062;52.538;13.400;2022-12-31T15:51:01;16.40;99.90
2112;DHT22;1062;52.538;13.400;2022-12-31T15:53:32;16.50;99.90
2112;DHT22;1062;52.538;13.400;2022-12-31T15:56:00;16.50;99.90
2112;DHT22;1062;52.538;13.400;2022-12-31T15:58:30;16.50;99.90
2112;DHT22;1062;52.538;13.400;2022-12-31T16:03:44;16.40;99.90
2112;DHT22;1062;52.538;13.400;2022-12-31T16:06:13;16.30;99.90
2112;DHT22;1062;52.538;13.400;2022-12-31T16:08:43;16.30;99.90
2112;DHT22;1062;52.538;13.400;2022-12-31T16:11:09;16.40;99.90
2112;DHT22;1062;52.538;13.400;2022-12-31T16:13:40;16.40;99.90
2112;DHT22;1062;52.538;13.400;2022-12-31T16:16:17;16.40;99.90
2112;DHT22;1062;52.538;13.400;2022-12-31T16:18:43;16.40;99.90
2112;DHT22;1062;52.538;13.400;2022-12-31T16:21:36;16.40;99.90
2112;DHT22;1062;52.538;13.400;2022-12-31T16:24:05;16.40;99.90
2112;DHT22;1062;52.538;13.400;2022-12-31T16:26:52;16.40;99.90
2112;DHT22;1062;52.538;13.400;2022-12-31T16:29:20;16.40;99.90
2112;DHT22;1062;52.538;13.400;2022-12-31T16:31:48;16.40;99.90
2112;DHT22;1062;52.538;13.400;2022-12-31T16:34:16;16.30;99.90
2112;DHT22;1062;52.538;13.400;2022-12-31T16:36:52;16.40;99.90
2112;DHT22;1062;52.538;13.400;2022-12-31T16:39:31;16.40;99.90
2112;DHT22;1062;52.538;13.400;2022-12-31T16:44:38;16.50;99.90
2112;DHT22;1062;52.538;13.400;2022-12-31T16:47:05;16.50;99.90
2112;DHT22;1062;52.538;13.400;2022-12-31T16:49:34;16.50;99.90
2112;DHT22;1062;52.538;13.400;2022-12-31T16:52:04;16.60;99.90
2112;DHT22;1062;52.538;13.400;2022-12-31T16:54:35;16.50;99.90
2112;DHT22;1062;52.538;13.400;2022-12-31T16:57:03;16.60;99.90
2112;DHT22;1062;52.538;13.400;2022-12-31T16:59:34;16.70;99.90
2112;DHT22;1062;52.538;13.400;2022-12-31T17:02:02;16.60;99.90
2112;DHT22;1062;52.538;13.400;2022-12-31T17:04:28;16.60;99.90
2112;DHT22;1062;52.538;13.400;2022-12-31T17:06:54;16.50;99.90
2112;DHT22;1062;52.538;13.400;2022-12-31T17:09:40;16.50;99.90
2112;DHT22;1062;52.538;13.400;2022-12-31T17:12:15;16.50;99.90
2112;DHT22;1062;52.538;13.400;2022-12-31T17:14:48;16.50;99.90
2112;DHT22;1062;52.538;13.400;2022-12-31T17:17:23;16.60;99.90
2112;DHT22;1062;52.538;13.400;2022-12-31T17:19:55;16.50;99.90
2112;DHT22;1062;52.538;13.400;2022-12-31T17:22:31;16.50;99.90
2112;DHT22;1062;52.538;13.400;2022-12-31T17:25:17;16.60;99.90
2112;DHT22;1062;52.538;13.400;2022-12-31T17:28:20;16.60;99.90
2112;DHT22;1062;52.538;13.400;2022-12-31T17:30:47;16.70;99.90
2112;DHT22;1062;52.538;13.400;2022-12-31T17:35:45;16.70;99.90
2112;DHT22;1062;52.538;13.400;2022-12-31T17:40:43;16.70;99.90
2112;DHT22;1062;52.538;13.400;2022-12-31T17:43:13;16.70;99.90
2112;DHT22;1062;52.538;13.400;2022-12-31T17:45:41;16.80;99.90
2112;DHT22;1062;52.538;13.400;2022-12-31T17:48:13;16.80;99.90
2112;DHT22;1062;52.538;13.400;2022-12-31T17:50:52;16.70;99.90
2112;DHT22;1062;52.538;13.400;2022-12-31T17:53:18;16.80;99.90
2112;DHT22;1062;52.538;13.400;2022-12-31T17:55:46;16.90;99.90
2112;DHT22;1062;52.538;13.400;2022-12-31T17:58:42;16.90;99.90
2112;DHT22;1062;52.538;13.400;2022-12-31T18:01:08;16.90;99.90
2112;DHT22;1062;52.538;13.400;2022-12-31T18:03:34;16.80;99.90
2112;DHT22;1062;52.538;13.400;2022-12-31T18:06:00;16.80;99.90
2112;DHT22;1062;52.538;13.400;2022-12-31T18:08:26;16.70;99.90
2112;DHT22;1062;52.538;13.400;2022-12-31T18:10:52;16.70;99.90
2112;DHT22;1062;52.538;13.400;2022-12-31T18:13:21;16.70;99.90
2112;DHT22;1062;52.538;13.400;2022-12-31T18:15:47;16.70;99.90
2112;DHT22;1062;52.538;13.400;2022-12-31T18:18:18;16.60;99.90
2112;DHT22;1062;52.538;13.400;2022-12-31T18:20:45;16.70;99.90
2112;DHT22;1062;52.538;13.400;2022-12-31T18:23:18;16.60;99.90
2112;DHT22;1062;52.538;13.400;2022-12-31T18:25:44;16.60;99.90
2112;DHT22;1062;52.538;13.400;2022-12-31T18:28:09;16.50;99.90
2112;DHT22;1062;52.538;13.400;2022-12-31T18:30:36;16.40;99.90
2112;DHT22;1062;52.538;13.400;2022-12-31T18:33:02;16.40;99.90
2112;DHT22;1062;52.538;13.400;2022-12-31T18:35:30;16.40;99.90
2112;DHT22;1062;52.538;13.400;2022-12-31T18:37:56;16.40;99.90
2112;DHT22;1062;52.538;13.400;2022-12-31T18:40:22;16.30;99.90
2112;DHT22;1062;52.538;13.400;2022-12-31T18:42:47;16.30;99.90
2112;DHT22;1062;52.538;13.400;2022-12-31T18:45:19;16.30;99.90
2112;DHT22;1062;52.538;13.400;2022-12-31T18:47:45;16.30;99.90
2112;DHT22;1062;52.538;13.400;2022-12-31T18:50:15;16.30;99.90
2112;DHT22;1062;52.538;13.400;2022-12-31T18:52:41;16.30;99.90
2112;DHT22;1062;52.538;13.400;2022-12-31T18:55:21;16.30;99.90
2112;DHT22;1062;52.538;13.400;2022-12-31T18:57:48;16.30;99.90
2112;DHT22;1062;52.538;13.400;2022-12-31T19:00:14;16.20;99.90
2112;DHT22;1062;52.538;13.400;2022-12-31T19:02:40;16.20;99.90
2112;DHT22;1062;52.538;13.400;2022-12-31T19:05:38;16.30;99.90
2112;DHT22;1062;52.538;13.400;2022-12-31T19:08:04;16.20;99.90
2112;DHT22;1062;52.538;13.400;2022-12-31T19:10:29;16.20;99.90
2112;DHT22;1062;52.538;13.400;2022-12-31T19:12:55;16.20;99.90
2112;DHT22;1062;52.538;13.400;2022-12-31T19:15:33;16.10;99.90
2112;DHT22;1062;52.538;13.400;2022-12-31T19:18:00;16.10;99.90
2112;DHT22;1062;52.538;13.400;2022-12-31T19:20:27;16.00;99.90
2112;DHT22;1062;52.538;13.400;2022-12-31T19:22:56;16.10;99.90
2112;DHT22;1062;52.538;13.400;2022-12-31T19:25:23;16.00;99.90
2112;DHT22;1062;52.538;13.400;2022-12-31T19:27:49;16.00;99.90
2112;DHT22;1062;52.538;13.400;2022-12-31T19:30:26;15.90;99.90
2112;DHT22;1062;52.538;13.400;2022-12-31T19:32:52;16.00;99.90
2112;DHT22;1062;52.538;13.400;2022-12-31T19:35:19;15.90;99.90
2112;DHT22;1062;52.538;13.400;2022-12-31T19:37:47;16.00;99.90
2112;DHT22;1062;52.538;13.400;2022-12-31T19:40:22;15.90;99.90
2112;DHT22;1062;52.538;13.400;2022-12-31T19:42:49;15.80;99.90
2112;DHT22;1062;52.538;13.400;2022-12-31T19:45:18;15.80;99.90
2112;DHT22;1062;52.538;13.400;2022-12-31T19:47:44;15.70;99.90
2112;DHT22;1062;52.538;13.400;2022-12-31T19:50:15;15.70;99.90
2112;DHT22;1062;52.538;13.400;2022-12-31T19:52:42;15.80;99.90
2112;DHT22;1062;52.538;13.400;2022-12-31T19:55:11;15.70;99.90
2112;DHT22;1062;52.538;13.400;2022-12-31T19:57:38;15.80;99.90
2112;DHT22;1062;52.538;13.400;2022-12-31T20:00:04;15.70;99.90
2112;DHT22;1062;52.538;13.400;2022-12-31T20:02:30;15.70;99.90
2112;DHT22;1062;52.538;13.400;2022-12-31T20:04:56;15.70;99.90
2112;DHT22;1062;52.538;13.400;2022-12-31T20:07:21;15.70;99.90
2112;DHT22;1062;52.538;13.400;2022-12-31T20:09:50;15.80;99.90
2112;DHT22;1062;52.538;13.400;2022-12-31T20:12:16;15.80;99.90
2112;DHT22;1062;52.538;13.400;2022-12-31T20:14:42;15.80;99.90
2112;DHT22;1062;52.538;13.400;2022-12-31T20:17:07;15.80;99.90
2112;DHT22;1062;52.538;13.400;2022-12-31T20:19:33;15.80;99.90
2112;DHT22;1062;52.538;13.400;2022-12-31T20:21:59;15.80;99.90
2112;DHT22;1062;52.538;13.400;2022-12-31T20:24:25;15.80;99.90
2112;DHT22;1062;52.538;13.400;2022-12-31T20:26:50;15.80;99.90